Highland, MI (48357)

6:17 PM EST on December 21, 2014 (GMT -0500)
Dunham Lake | Change Station
CLOSE
Current Station
Personal Weather Station
Location: Highland, MI
Elevation: 997 ft
Nearby Weather Stations

Elev 997 ft 42.65 °N, 83.68 °W | Updated 25 seconds ago

Overcast
Overcast
30.6 °F
Feels Like 31 °F
N
0.0
Wind Variable Wind from North
Gusts 0.0 mph

Today
High -- | Low -- °F
--% Chance of Precip.
Yesterday
High -- | Low -- °F
Precip. -- in
8:01 AM 5:04 PM
Waning Crescent, 0% visible
Pressure 30.24 in
Visibility 9.0 miles
Clouds Overcast 5000 ft
Windchill 31 °F
Dew Point 24 °F
Humidity 76%
Rainfall 0.00 in
Snow Depth Not available.
UV 0.0 out of 12
Pollen .10 out of 12
Air Quality Not available.
Flu Activity Not available.
METAR KPTK 212253Z 15006KT 9SM OVC050 M01/M06 A3020 RMK AO2 SLP239 T10061056

More Conditions Fewer Conditions

Pressure 30.24 in
Visibility 9.0 miles
Clouds Overcast 5000 ft
Windchill 31 °F
Dew Point 24 °F
Humidity 76%
Rainfall 0.00 in
Snow Depth Not available.
UV 0.0 out of 12
Pollen .10 out of 12
Air Quality Not available.
Flu Activity Not available.
METAR KPTK 212253Z 15006KT 9SM OVC050 M01/M06 A3020 RMK AO2 SLP239 T10061056

More Conditions Fewer Conditions

10-Day Weather Forecast

Almanac

Astronomy

Dec. 21, 2014 Rise Set
Actual Time
Civil Twilight
Nautical Twilight
Astronomical Twilight
Moon
Length of Visible Light
Length of Day
Tomorrow will be .
, % of the Moon is Illuminated

Today's Extremes

State Highs State Lows

Community

WunderPhotos

Upload Photos

1,779,502 photos uploaded!

WunderBlogs® & News

Nearby

Air Quality

  Air Quality AQ Index Pollutant
Not available.

Snow Depth

Station Depth Elevation

Earthquake Activity

City Distance Mag. Time & Date
Minimum magnitude displayed is 2.5.

Coastal Water Temperatures

Place Temperature

Nearby Weather Stations